createdAt,value
2018-07-28T00:02:21.149Z,100825.91
2018-07-28T00:04:51.030Z,100816.78
2018-07-28T00:07:20.287Z,100809.69
2018-07-28T00:09:55.949Z,100802.69
2018-07-28T00:12:30.161Z,100797.45
2018-07-28T00:15:00.711Z,100797.69
2018-07-28T00:17:34.361Z,100791.50
2018-07-28T00:20:04.401Z,100791.87
2018-07-28T00:22:33.845Z,100784.81
2018-07-28T00:25:03.024Z,100787.91
2018-07-28T00:27:34.545Z,100786.31
2018-07-28T00:30:04.083Z,100787.39
2018-07-28T00:32:38.117Z,100796.84
2018-07-28T00:35:07.463Z,100793.35
2018-07-28T00:37:36.816Z,100791.65
2018-07-28T00:40:06.083Z,100792.78
2018-07-28T00:42:35.609Z,100787.94
2018-07-28T00:45:05.409Z,100793.41
2018-07-28T00:47:34.494Z,100789.08
2018-07-28T00:50:03.875Z,100785.87
2018-07-28T00:52:34.057Z,100783.68
2018-07-28T00:55:05.614Z,100782.27
2018-07-28T00:57:34.805Z,100784.98
2018-07-28T01:00:04.007Z,100776.97
2018-07-28T01:02:33.220Z,100774.23
2018-07-28T01:05:02.420Z,100772.98
2018-07-28T01:07:31.523Z,100775.92
2018-07-28T01:10:00.746Z,100765.92
2018-07-28T01:12:30.641Z,100769.28
2018-07-28T01:28:03.907Z,100752.67
2018-07-28T01:30:33.351Z,100749.95
2018-07-28T01:33:03.179Z,100747.06
2018-07-28T01:35:32.664Z,100746.27
2018-07-28T01:38:03.487Z,100748.05
2018-07-28T01:40:32.661Z,100748.98
2018-07-28T01:43:03.735Z,100741.09
2018-07-28T01:45:33.420Z,100743.22
2018-07-28T01:48:02.732Z,100741.34
2018-07-28T01:50:32.136Z,100744.08
2018-07-28T01:53:01.193Z,100735.28
2018-07-28T01:55:30.374Z,100732.22
2018-07-28T01:57:59.746Z,100727.12
2018-07-28T02:00:28.977Z,100730.09
2018-07-28T02:02:58.160Z,100729.44
2018-07-28T02:05:27.399Z,100713.83
2018-07-28T02:07:56.553Z,100717.59
2018-07-28T02:10:25.736Z,100716.11
2018-07-28T02:12:54.958Z,100713.12
2018-07-28T02:15:24.807Z,100717.94
2018-07-28T02:17:55.976Z,100711.50
2018-07-28T02:20:35.504Z,100709.79
2018-07-28T02:23:04.691Z,100704.68
2018-07-28T02:25:36.238Z,100699.55
2018-07-28T02:41:05.537Z,100685.41
2018-07-28T02:43:35.425Z,100688.39
2018-07-28T02:46:04.797Z,100681.84
2018-07-28T02:48:34.720Z,100684.08
2018-07-28T02:51:03.931Z,100681.44
2018-07-28T02:53:33.627Z,100686.56
2018-07-28T02:56:02.937Z,100683.16
2018-07-28T02:58:37.823Z,100684.83
2018-07-28T03:01:07.929Z,100682.60
2018-07-28T03:03:37.840Z,100679.27
2018-07-28T03:06:06.950Z,100672.25
2018-07-28T03:08:36.479Z,100676.77
2018-07-28T03:11:05.615Z,100679.48
2018-07-28T03:13:34.731Z,100682.52
2018-07-28T03:16:11.094Z,100679.42
2018-07-28T03:18:40.296Z,100673.45
2018-07-28T03:21:09.442Z,100676.09
2018-07-28T03:23:38.652Z,100678.20
2018-07-28T03:26:08.137Z,100668.51
2018-07-28T03:31:20.373Z,100666.59
2018-07-28T03:33:49.573Z,100669.19
2018-07-28T03:36:19.787Z,100663.09
2018-07-28T03:38:49.208Z,100665.75
2018-07-28T03:41:19.125Z,100663.56
2018-07-28T03:43:48.385Z,100666.30
2018-07-28T03:46:17.493Z,100666.28
2018-07-28T03:48:47.202Z,100665.34
2018-07-28T03:51:16.393Z,100657.01
2018-07-28T03:53:45.726Z,100660.97
2018-07-28T03:56:14.815Z,100662.30
2018-07-28T03:58:44.285Z,100667.06
2018-07-28T04:01:13.453Z,100658.20
2018-07-28T04:03:42.539Z,100661.21
2018-07-28T04:06:11.791Z,100661.14
2018-07-28T04:08:47.297Z,100659.07
2018-07-28T04:11:16.387Z,100663.86
2018-07-28T04:13:45.479Z,100660.45
2018-07-28T04:16:15.218Z,100658.63
2018-07-28T04:18:44.279Z,100659.70
2018-07-28T04:21:17.653Z,100660.16
2018-07-28T04:23:46.686Z,100650.39
2018-07-28T04:26:16.221Z,100639.02
2018-07-28T04:28:46.012Z,100648.71
2018-07-28T04:31:15.723Z,100654.02
2018-07-28T04:33:44.861Z,100658.66
2018-07-28T04:36:15.588Z,100646.97
2018-07-28T04:38:44.873Z,100655.41
2018-07-28T04:41:14.105Z,100651.79
2018-07-28T04:43:43.355Z,100657.26
2018-07-28T04:46:13.489Z,100656.50
2018-07-28T04:48:43.036Z,100652.50
2018-07-28T04:51:12.246Z,100652.92
2018-07-28T04:53:44.645Z,100649.95
2018-07-28T04:56:13.767Z,100645.67
2018-07-28T04:58:43.145Z,100642.02
2018-07-28T05:01:13.075Z,100648.47
2018-07-28T05:03:42.447Z,100642.79
2018-07-28T05:06:11.803Z,100646.31
2018-07-28T05:08:41.927Z,100646.06
2018-07-28T05:11:11.197Z,100647.05
2018-07-28T05:13:40.308Z,100653.54
2018-07-28T05:16:09.416Z,100644.08
2018-07-28T05:18:38.806Z,100646.19
2018-07-28T05:21:08.044Z,100639.42
2018-07-28T05:23:37.628Z,100637.45
2018-07-28T05:26:06.652Z,100631.60
2018-07-28T05:28:36.247Z,100631.48
2018-07-28T05:31:05.292Z,100629.61
2018-07-28T05:33:35.360Z,100630.34
2018-07-28T05:36:04.508Z,100634.81
2018-07-28T05:38:33.608Z,100628.91
2018-07-28T05:41:02.800Z,100630.01
2018-07-28T05:43:31.998Z,100628.37
2018-07-28T05:46:01.065Z,100624.55
2018-07-28T05:48:30.130Z,100624.89
2018-07-28T05:50:59.222Z,100624.98
2018-07-28T05:53:28.334Z,100624.61
2018-07-28T05:55:57.686Z,100619.16
2018-07-28T05:58:26.722Z,100620.79
2018-07-28T06:00:55.875Z,100620.05
2018-07-28T06:03:24.945Z,100619.49
2018-07-28T06:05:54.134Z,100615.32
2018-07-28T06:08:23.774Z,100614.83
2018-07-28T06:10:53.091Z,100609.55
2018-07-28T06:13:22.186Z,100609.06
2018-07-28T06:15:51.364Z,100609.23
2018-07-28T06:18:20.574Z,100612.17
2018-07-28T06:20:49.774Z,100611.69
2018-07-28T06:23:18.937Z,100615.34
2018-07-28T06:25:48.918Z,100602.44
2018-07-28T06:28:19.160Z,100609.67
2018-07-28T06:30:48.481Z,100608.77
2018-07-28T06:33:18.728Z,100605.10
2018-07-28T06:35:48.556Z,100614.85
2018-07-28T06:38:17.812Z,100606.64
2018-07-28T06:40:47.059Z,100615.46
2018-07-28T06:43:16.159Z,100612.61
2018-07-28T06:45:45.438Z,100613.27
2018-07-28T06:48:14.546Z,100606.00
2018-07-28T06:50:43.728Z,100598.78
2018-07-28T06:53:13.047Z,100601.77
2018-07-28T06:55:42.178Z,100597.26
2018-07-28T06:58:11.370Z,100595.45
2018-07-28T07:00:40.544Z,100585.94
2018-07-28T07:03:09.827Z,100591.03
2018-07-28T07:05:39.053Z,100587.34
2018-07-28T07:08:08.721Z,100587.92
2018-07-28T07:10:37.778Z,100586.15
2018-07-28T07:13:06.927Z,100586.23
2018-07-28T07:15:36.107Z,100583.43
2018-07-28T07:18:05.202Z,100574.77
2018-07-28T07:20:34.349Z,100580.16
2018-07-28T07:23:03.588Z,100576.29
2018-07-28T07:25:32.809Z,100566.13
2018-07-28T07:28:02.002Z,100579.30
2018-07-28T07:30:31.206Z,100571.29
2018-07-28T07:33:00.918Z,100571.75
2018-07-28T07:35:30.015Z,100577.73
2018-07-28T07:37:59.213Z,100574.02
2018-07-28T07:40:28.357Z,100576.28
2018-07-28T07:42:57.777Z,100572.80
2018-07-28T07:45:26.981Z,100574.77
2018-07-28T07:47:56.105Z,100574.29
2018-07-28T07:50:29.834Z,100578.59
2018-07-28T07:52:59.655Z,100574.86
2018-07-28T07:55:30.912Z,100567.34
2018-07-28T07:58:00.067Z,100564.95
2018-07-28T08:00:29.301Z,100558.86
2018-07-28T08:02:58.633Z,100567.20
2018-07-28T08:05:35.619Z,100563.67
2018-07-28T08:08:04.956Z,100564.77
2018-07-28T08:23:34.159Z,100558.81
2018-07-28T08:26:03.395Z,100557.29
2018-07-28T08:28:32.520Z,100560.25
2018-07-28T08:31:01.620Z,100558.52
2018-07-28T08:33:30.839Z,100557.83
2018-07-28T08:36:00.046Z,100556.51
2018-07-28T08:38:29.488Z,100552.34
2018-07-28T08:40:58.826Z,100554.84
2018-07-28T08:43:28.058Z,100548.23
2018-07-28T08:46:03.790Z,100550.38
2018-07-28T08:48:32.953Z,100545.73
2018-07-28T08:51:02.649Z,100547.16
2018-07-28T08:53:32.451Z,100547.91
2018-07-28T08:56:01.617Z,100541.82
2018-07-28T08:58:30.740Z,100543.16
2018-07-28T09:01:00.099Z,100540.39
2018-07-28T09:03:29.196Z,100548.33
2018-07-28T09:05:58.618Z,100550.27
2018-07-28T09:08:27.926Z,100545.09
2018-07-28T09:10:57.236Z,100542.74
2018-07-28T09:13:28.448Z,100541.87
2018-07-28T09:15:58.438Z,100538.77
2018-07-28T09:18:27.634Z,100533.06
2018-07-28T09:20:56.763Z,100530.87
2018-07-28T09:23:26.392Z,100531.31
2018-07-28T09:26:00.477Z,100532.63
2018-07-28T09:28:30.800Z,100516.77
2018-07-28T09:31:01.472Z,100530.09
2018-07-28T09:33:32.377Z,100525.97
2018-07-28T09:36:01.626Z,100525.61
2018-07-28T09:38:33.361Z,100517.59
2018-07-28T09:41:02.878Z,100519.47
2018-07-28T09:43:36.782Z,100519.63
2018-07-28T09:46:06.542Z,100515.45
2018-07-28T09:48:35.726Z,100515.64
2018-07-28T09:51:05.135Z,100511.99
2018-07-28T09:53:34.806Z,100510.78
2018-07-28T09:56:04.379Z,100509.72
2018-07-28T09:58:33.731Z,100509.72
2018-07-28T10:01:09.563Z,100506.66
2018-07-28T10:03:38.842Z,100512.09
2018-07-28T10:06:13.474Z,100506.98
2018-07-28T10:08:57.766Z,100513.14
2018-07-28T10:11:27.866Z,100511.72
2018-07-28T10:14:05.937Z,100501.43
2018-07-28T10:16:51.828Z,100503.05
2018-07-28T10:22:03.513Z,100503.32
2018-07-28T10:40:50.070Z,100473.58
2018-07-28T10:43:21.590Z,100478.14
2018-07-28T10:45:56.229Z,100481.24
2018-07-28T10:48:32.593Z,100481.36
2018-07-28T10:51:02.294Z,100483.25
2018-07-28T10:53:33.710Z,100478.56
2018-07-28T10:56:03.539Z,100488.27
2018-07-28T10:58:33.279Z,100477.27
2018-07-28T11:01:02.590Z,100472.29
2018-07-28T11:03:31.827Z,100472.63
2018-07-28T11:06:01.305Z,100458.33
2018-07-28T11:08:30.495Z,100455.82
2018-07-28T11:11:04.409Z,100463.87
2018-07-28T11:13:33.773Z,100449.39
2018-07-28T11:16:03.363Z,100444.81
2018-07-28T11:18:35.316Z,100442.68
2018-07-28T11:21:04.993Z,100449.69
2018-07-28T11:23:46.223Z,100446.63
2018-07-28T11:26:21.396Z,100436.85
2018-07-28T11:28:51.777Z,100433.66
2018-07-28T11:31:32.892Z,100433.42
2018-07-28T11:34:13.455Z,100438.66
2018-07-28T11:36:57.296Z,100430.86
2018-07-28T11:39:37.921Z,100425.97
2018-07-28T11:42:18.483Z,100428.94
2018-07-28T11:45:25.198Z,100424.47
2018-07-28T11:47:54.730Z,100415.70
2018-07-28T11:50:24.604Z,100412.53
2018-07-28T11:52:53.696Z,100410.98
2018-07-28T11:55:22.984Z,100420.23
2018-07-28T11:57:52.156Z,100418.42
2018-07-28T12:00:22.699Z,100413.11
2018-07-28T12:02:53.426Z,100414.75
2018-07-28T12:05:23.174Z,100413.33
2018-07-28T12:07:53.102Z,100414.31
2018-07-28T12:10:22.786Z,100406.55
2018-07-28T12:12:51.981Z,100399.68
2018-07-28T12:15:24.856Z,100390.16
2018-07-28T12:17:56.368Z,100389.89
2018-07-28T12:20:25.938Z,100386.34
2018-07-28T12:22:55.603Z,100386.88
2018-07-28T12:25:25.151Z,100376.30
2018-07-28T12:27:55.457Z,100378.58
2018-07-28T12:30:26.503Z,100371.89
2018-07-28T12:32:57.747Z,100375.37
2018-07-28T12:35:27.711Z,100379.19
2018-07-28T12:37:56.868Z,100372.25
2018-07-28T12:40:25.944Z,100371.98
2018-07-28T12:42:55.890Z,100374.37
2018-07-28T12:45:25.587Z,100375.28
2018-07-28T12:47:54.957Z,100380.86
2018-07-28T12:50:25.340Z,100377.13
2018-07-28T12:52:55.498Z,100375.30
2018-07-28T12:55:25.162Z,100372.84
2018-07-28T12:57:54.617Z,100367.38
2018-07-28T13:00:25.073Z,100373.41
2018-07-28T13:02:54.196Z,100366.97
2018-07-28T13:05:23.653Z,100355.34
2018-07-28T13:07:53.336Z,100366.89
2018-07-28T13:10:22.614Z,100356.13
2018-07-28T13:12:52.010Z,100367.30
2018-07-28T13:15:22.005Z,100360.07
2018-07-28T13:17:51.425Z,100360.92
2018-07-28T13:20:20.780Z,100359.20
2018-07-28T13:22:50.134Z,100342.80
2018-07-28T13:25:19.469Z,100343.82
2018-07-28T13:27:52.490Z,100356.70
2018-07-28T13:30:22.663Z,100356.81
2018-07-28T13:32:56.160Z,100357.09
2018-07-28T13:35:37.856Z,100354.19
2018-07-28T13:38:10.919Z,100348.15
2018-07-28T13:40:41.342Z,100339.62
2018-07-28T13:43:14.679Z,100339.53
2018-07-28T13:45:46.896Z,100331.70
2018-07-28T13:58:01.071Z,100319.03
2018-07-28T14:00:30.249Z,100332.89
2018-07-28T14:03:00.637Z,100324.51
2018-07-28T14:05:29.768Z,100324.38
2018-07-28T14:07:58.948Z,100316.77
2018-07-28T14:10:28.043Z,100314.98
2018-07-28T14:12:57.174Z,100318.39
2018-07-28T14:15:26.528Z,100312.91
2018-07-28T14:17:57.498Z,100315.16
2018-07-28T14:20:26.697Z,100311.34
2018-07-28T14:23:06.450Z,100301.95
2018-07-28T14:25:35.780Z,100299.38
2018-07-28T14:28:05.005Z,100300.30
2018-07-28T14:30:34.237Z,100297.33
2018-07-28T14:33:03.579Z,100288.44
2018-07-28T14:35:32.797Z,100293.56
2018-07-28T14:38:02.058Z,100288.63
2018-07-28T14:40:31.133Z,100292.52
2018-07-28T14:43:00.257Z,100293.92
2018-07-28T14:45:29.321Z,100284.48
2018-07-28T14:47:58.591Z,100281.22
2018-07-28T14:50:27.717Z,100278.64
2018-07-28T14:52:57.094Z,100268.38
2018-07-28T14:55:26.175Z,100275.73
2018-07-28T14:57:55.289Z,100274.97
2018-07-28T15:00:24.445Z,100283.50
2018-07-28T15:02:53.640Z,100278.40
2018-07-28T15:05:22.735Z,100274.97
2018-07-28T15:07:52.135Z,100272.28
2018-07-28T15:10:21.213Z,100268.10
2018-07-28T15:12:50.625Z,100267.71
2018-07-28T15:15:20.142Z,100260.72
2018-07-28T15:17:49.534Z,100261.17
2018-07-28T15:20:18.653Z,100255.95
2018-07-28T15:22:48.963Z,100273.80
2018-07-28T15:25:18.660Z,100264.50
2018-07-28T15:27:52.571Z,100265.73
2018-07-28T15:30:22.267Z,100276.94
2018-07-28T15:33:08.460Z,100281.98
2018-07-28T15:35:37.689Z,100287.36
2018-07-28T15:38:06.838Z,100285.95
2018-07-28T15:40:36.709Z,100287.47
2018-07-28T15:43:06.025Z,100289.67
2018-07-28T15:45:35.501Z,100283.31
2018-07-28T15:48:04.634Z,100281.16
2018-07-28T15:50:35.090Z,100284.28
2018-07-28T15:53:04.258Z,100279.52
2018-07-28T15:55:33.531Z,100278.33
2018-07-28T15:58:02.919Z,100275.66
2018-07-28T16:00:32.127Z,100276.39
2018-07-28T16:03:03.820Z,100277.94
2018-07-28T16:18:33.096Z,100294.13
2018-07-28T16:21:03.321Z,100301.11
2018-07-28T16:23:36.824Z,100288.66
2018-07-28T16:26:07.326Z,100287.54
2018-07-28T16:28:36.910Z,100285.11
2018-07-28T16:31:07.236Z,100279.38
2018-07-28T16:33:38.019Z,100271.40
2018-07-28T16:49:07.305Z,100275.43
2018-07-28T16:51:36.800Z,100279.73
2018-07-28T16:54:06.115Z,100281.69
2018-07-28T16:56:35.383Z,100277.95
2018-07-28T16:59:04.592Z,100276.06
2018-07-28T17:01:33.736Z,100269.59
2018-07-28T17:04:02.901Z,100273.98
2018-07-28T17:06:32.097Z,100273.82
2018-07-28T17:09:01.284Z,100287.05
2018-07-28T17:11:30.492Z,100291.22
2018-07-28T17:13:59.791Z,100283.08
2018-07-28T17:16:29.279Z,100287.67
2018-07-28T17:18:59.169Z,100281.79
2018-07-28T17:21:28.631Z,100276.38
2018-07-28T17:23:57.795Z,100275.18
2018-07-28T17:26:31.435Z,100271.23
2018-07-28T17:29:01.455Z,100276.58
2018-07-28T17:31:31.521Z,100279.67
2018-07-28T17:34:00.754Z,100295.06
2018-07-28T17:36:29.968Z,100347.04
2018-07-28T17:38:59.092Z,100403.77
2018-07-28T17:41:29.101Z,100439.92
2018-07-28T17:44:03.007Z,100447.03
2018-07-28T17:46:32.247Z,100469.75
2018-07-28T17:49:01.581Z,100480.39
2018-07-28T17:51:30.892Z,100473.70
2018-07-28T17:54:00.065Z,100462.39
2018-07-28T17:56:29.414Z,100475.20
2018-07-28T17:58:59.494Z,100484.29
2018-07-28T18:01:31.872Z,100481.41
2018-07-28T18:04:02.005Z,100481.44
2018-07-28T18:06:31.148Z,100466.09
2018-07-28T18:09:00.494Z,100460.88
2018-07-28T18:11:30.416Z,100454.17
2018-07-28T18:14:06.022Z,100447.38
2018-07-28T18:16:35.207Z,100442.91
2018-07-28T18:19:04.473Z,100438.62
2018-07-28T18:21:33.841Z,100440.61
2018-07-28T18:24:03.021Z,100439.75
2018-07-28T18:26:32.211Z,100435.38
2018-07-28T18:29:01.332Z,100427.70
2018-07-28T18:31:30.718Z,100438.09
2018-07-28T18:43:46.471Z,100454.09
2018-07-28T18:46:21.205Z,100455.47
2018-07-28T18:48:50.545Z,100449.05
2018-07-28T18:51:21.424Z,100447.46
2018-07-28T18:53:50.719Z,100455.86
2018-07-28T18:56:21.447Z,100480.78
2018-07-28T18:58:51.415Z,100485.50
2018-07-28T19:01:21.418Z,100481.66
2018-07-28T19:16:55.103Z,100487.80
2018-07-28T19:19:24.344Z,100493.48
2018-07-28T19:21:53.665Z,100492.72
2018-07-28T19:24:23.263Z,100498.50
2018-07-28T19:26:54.197Z,100510.47
2018-07-28T19:29:28.766Z,100524.09
2018-07-28T19:31:57.900Z,100536.48
2018-07-28T19:34:27.735Z,100532.63
2018-07-28T19:37:02.182Z,100537.84
2018-07-28T19:39:35.197Z,100547.02
2018-07-28T19:42:09.943Z,100546.39
2018-07-28T19:44:39.687Z,100552.81
2018-07-28T19:47:09.216Z,100580.41
2018-07-28T19:49:39.439Z,100604.94
2018-07-28T20:05:09.669Z,100626.75
2018-07-28T20:07:40.224Z,100642.66
2018-07-28T20:10:09.453Z,100662.77
2018-07-28T20:12:39.337Z,100678.33
2018-07-28T20:15:08.523Z,100689.82
2018-07-28T20:17:37.716Z,100691.83
2018-07-28T20:20:07.511Z,100698.89
2018-07-28T20:22:37.645Z,100696.06
2018-07-28T20:25:06.729Z,100697.77
2018-07-28T20:27:38.042Z,100701.55
2018-07-28T20:30:08.628Z,100698.32
2018-07-28T20:32:37.879Z,100706.75
2018-07-28T20:35:10.995Z,100704.73
2018-07-28T20:37:40.281Z,100710.80
2018-07-28T20:40:27.751Z,100710.84
2018-07-28T20:43:01.432Z,100700.53
2018-07-28T20:45:30.785Z,100685.44
2018-07-28T20:48:01.742Z,100690.02
2018-07-28T20:50:30.829Z,100691.13
2018-07-28T20:53:00.005Z,100684.28
2018-07-28T20:55:29.610Z,100691.34
2018-07-28T20:57:58.854Z,100701.76
2018-07-28T21:00:28.722Z,100702.73
2018-07-28T21:03:09.491Z,100702.79
2018-07-28T21:18:39.067Z,100715.45
2018-07-28T21:21:08.189Z,100709.25
2018-07-28T21:23:37.285Z,100704.41
2018-07-28T21:26:06.724Z,100702.72
2018-07-28T21:28:36.267Z,100696.23
2018-07-28T21:31:06.717Z,100702.89
2018-07-28T21:33:40.089Z,100697.04
2018-07-28T21:36:09.605Z,100703.31
2018-07-28T21:51:39.419Z,100719.63
2018-07-28T21:54:09.931Z,100721.17
2018-07-28T21:56:40.619Z,100716.61
2018-07-28T21:59:09.699Z,100717.84
2018-07-28T22:01:43.180Z,100726.05
2018-07-28T22:04:17.050Z,100727.97
2018-07-28T22:06:46.213Z,100728.20
2018-07-28T22:09:15.433Z,100733.84
2018-07-28T22:11:44.724Z,100730.93
2018-07-28T22:14:13.881Z,100739.19
2018-07-28T22:16:43.793Z,100740.38
2018-07-28T22:19:13.207Z,100745.90
2018-07-28T22:21:43.185Z,100744.56
2018-07-28T22:24:16.909Z,100751.40
2018-07-28T22:26:46.513Z,100748.27
2018-07-28T22:29:17.174Z,100744.93
2018-07-28T22:31:47.669Z,100746.82
2018-07-28T22:34:17.613Z,100746.10
2018-07-28T22:36:47.371Z,100744.91
2018-07-28T22:39:17.200Z,100743.62
2018-07-28T22:41:46.497Z,100749.05
2018-07-28T22:44:15.725Z,100748.70
2018-07-28T22:46:45.725Z,100743.84
2018-07-28T23:02:15.014Z,100805.52
2018-07-28T23:04:45.498Z,100805.25
2018-07-28T23:07:15.377Z,100810.47
2018-07-28T23:09:47.328Z,100814.83
2018-07-28T23:12:20.389Z,100811.42
2018-07-28T23:14:49.897Z,100816.63
2018-07-28T23:17:21.155Z,100821.82
2018-07-28T23:19:50.580Z,100824.81
2018-07-28T23:22:24.801Z,100839.19
2018-07-28T23:24:54.302Z,100844.86
2018-07-28T23:27:23.496Z,100857.77
2018-07-28T23:29:52.656Z,100863.63
2018-07-28T23:32:21.756Z,100867.73
2018-07-28T23:34:52.112Z,100872.76
2018-07-28T23:37:21.230Z,100883.59
2018-07-28T23:39:50.386Z,100884.54
2018-07-28T23:42:19.512Z,100895.27
2018-07-28T23:44:48.746Z,100889.37
2018-07-28T23:47:18.474Z,100894.50
2018-07-28T23:49:47.787Z,100890.76
2018-07-28T23:52:16.998Z,100890.59
2018-07-28T23:54:46.209Z,100897.74
2018-07-28T23:57:17.397Z,100897.09
2018-07-28T23:59:46.464Z,100908.09
